S/y Roselina — XPB8231 — position and weather

sailwx.info

Track history (hours):
 
Tides and Currents Weather Stations Pressure Air Temp Water Temp Dewpoint Dewpoint Depression Visibility Wind Speed Wind Dir Waves Ship Positions

S/y Roselina

Last reported at 2018-Jun-19 01:01 UTC. Time now 2018-Jun-23 14:18 UTC.
Position N 40°07' W 026°59'.

Length 19 m; draft 2.2 m.

Type: Sailing vessel. MMSI: 219251000.

Date/timePositionNaut miles runAvg speedWind from/ knotsBaromVisibWave heightAir tempDewpointWater temp
2018-Jun-19 01:01N 40°07' W 026°59'10 6.7
2018-Jun-18 23:33N 39°57' W 026°60'28 7.0
2018-Jun-18 19:35N 39°30' W 027°01'1 6.7
2018-Jun-18 19:30N 39°29' W 027°01'5 6.9
2018-Jun-18 18:45N 39°24' W 027°01'2 7.5
2018-Jun-18 18:30N 39°22' W 027°02'4 7.6
2018-Jun-18 18:01N 39°19' W 027°02'4 7.8
2018-Jun-18 17:30N 39°15' W 027°02'4 7.7
2018-Jun-18 17:00N 39°11' W 027°02'4 7.0
2018-Jun-18 16:30N 39°07' W 027°02'4 7.4
2018-Jun-18 16:00N 39°04' W 027°03'3 6.7
2018-Jun-18 15:30N 39°00' W 027°03'2 2.7
2018-Jun-18 14:51N 38°59' W 027°03'1 4.2
2018-Jun-18 14:30N 38°57' W 027°04'3 5.2
2018-Jun-18 14:00N 38°55' W 027°04'3 5.7
2018-Jun-18 13:30N 38°52' W 027°03'3 6.4
2018-Jun-18 13:00N 38°49' W 027°02'3 6.0
2018-Jun-18 12:30N 38°46' W 027°01'3 6.4
2018-Jun-18 12:00N 38°43' W 027°01'3 6.6
2018-Jun-18 11:30N 38°40' W 027°03'3 6.2
2018-Jun-18 11:01N 38°38' W 027°06'4 7.0
2018-Jun-18 10:27N 38°39' W 027°11'1 2.8
2018-Jun-18 09:56N 38°39' W 027°13'0 0.0
2018-Jun-18 09:24N 38°39' W 027°13'0 0.1
2018-Jun-18 08:51N 38°39' W 027°13'0 0.0
2018-Jun-18 08:30N 38°39' W 027°13'0 0.0
2018-Jun-18 08:00N 38°39' W 027°13'0 0.0
2018-Jun-18 07:27N 38°39' W 027°13'0 0.0
2018-Jun-18 04:18N 38°39' W 027°13'0 0.0
2018-Jun-18 01:18N 38°39' W 027°13'0 0.0
2018-Jun-18 00:54N 38°39' W 027°13'0 0.0
2018-Jun-18 00:30N 38°39' W 027°13'0 0.1
2018-Jun-18 00:00N 38°39' W 027°13'0 0.0
2018-Jun-17 23:30N 38°39' W 027°13'0 0.0
2018-Jun-17 23:00N 38°39' W 027°13'0 0.0
2018-Jun-17 22:15N 38°39' W 027°13'0 0.1
2018-Jun-17 21:57N 38°39' W 027°13'0 0.0
2018-Jun-17 21:00N 38°39' W 027°13'0 0.0
2018-Jun-17 20:30N 38°39' W 027°13'0 0.0
2018-Jun-17 18:18N 38°39' W 027°13'0 0.0
2018-Jun-17 16:57N 38°39' W 027°13'0 0.0
2018-Jun-17 16:30N 38°39' W 027°13'0 0.0
2018-Jun-17 14:48N 38°39' W 027°13'0 0.0
2018-Jun-17 13:09N 38°39' W 027°13'0 0.1
2018-Jun-17 12:51N 38°39' W 027°13'0 0.0
2018-Jun-17 12:30N 38°39' W 027°13'0 0.0
2018-Jun-17 11:57N 38°39' W 027°13'0 0.0
2018-Jun-17 10:57N 38°39' W 027°13'0 0.0
2018-Jun-17 10:30N 38°39' W 027°13'0 0.0
2018-Jun-17 09:57N 38°39' W 027°13'0 0.1
2018-Jun-17 09:30N 38°39' W 027°13'  
2018-Jun-13 17:48N 38°39' W 027°13'0 0.0
2018-Jun-13 17:30N 38°39' W 027°13'0 0.0
2018-Jun-13 16:57N 38°39' W 027°13'0 0.0
2018-Jun-13 16:30N 38°39' W 027°13'0 0.0
2018-Jun-13 16:00N 38°39' W 027°13'0 0.0
2018-Jun-13 15:30N 38°39' W 027°13'0 0.0
2018-Jun-13 13:06N 38°39' W 027°13'0 0.1
2018-Jun-13 12:42N 38°39' W 027°13'0 0.0
2018-Jun-13 12:27N 38°39' W 027°13'0 0.0
2018-Jun-13 10:42N 38°39' W 027°13'0 0.0
2018-Jun-13 06:48N 38°39' W 027°13'0 0.0
2018-Jun-13 06:30N 38°39' W 027°13'0 0.0
2018-Jun-13 05:48N 38°39' W 027°13'0 0.1
2018-Jun-13 05:30N 38°39' W 027°13'0 0.0
2018-Jun-13 04:15N 38°39' W 027°13'0 0.0
2018-Jun-13 04:00N 38°39' W 027°13'0 0.0
2018-Jun-13 03:27N 38°39' W 027°13'0 0.0
2018-Jun-13 01:42N 38°39' W 027°13'0 0.1
2018-Jun-13 01:27N 38°39' W 027°13'0 0.1
2018-Jun-13 01:00N 38°39' W 027°13'0 0.0
2018-Jun-13 00:30N 38°39' W 027°13'0 0.0
2018-Jun-12 23:12N 38°39' W 027°13'0 0.0
2018-Jun-12 20:36N 38°39' W 027°13'0 0.0
2018-Jun-12 17:09N 38°39' W 027°13'0 0.0
2018-Jun-12 16:39N 38°39' W 027°13'0 0.0
2018-Jun-12 16:18N 38°39' W 027°13'0 0.1
2018-Jun-12 16:00N 38°39' W 027°13'0 0.0
2018-Jun-12 14:54N 38°39' W 027°13'0 0.0
2018-Jun-12 13:36N 38°39' W 027°13'0 0.0
2018-Jun-12 11:48N 38°39' W 027°13'0 0.0
2018-Jun-12 11:18N 38°39' W 027°13'0 0.1
2018-Jun-12 10:59N 38°39' W 027°13'0 0.1
2018-Jun-12 10:27N 38°39' W 027°13'0 0.0
2018-Jun-12 10:00N 38°39' W 027°13'0 0.0
2018-Jun-12 08:17N 38°39' W 027°13'0 0.1
2018-Jun-12 07:54N 38°39' W 027°13'0 0.1
2018-Jun-12 07:21N 38°39' W 027°13'0 0.0
2018-Jun-12 04:18N 38°39' W 027°13'0 0.0
2018-Jun-12 03:47N 38°39' W 027°13'0 0.1
2018-Jun-12 03:27N 38°39' W 027°13'0 0.0
2018-Jun-12 02:02N 38°39' W 027°13'0 0.1
2018-Jun-12 01:44N 38°39' W 027°13'0 0.1
2018-Jun-12 01:26N 38°39' W 027°13'0 0.0
2018-Jun-12 01:00N 38°39' W 027°13'0 0.0
2018-Jun-12 00:24N 38°39' W 027°13'0 0.0
2018-Jun-11 23:51N 38°39' W 027°13'0 0.0
2018-Jun-11 23:05N 38°39' W 027°13'0 0.0
2018-Jun-11 22:39N 38°39' W 027°13'0 0.0
2018-Jun-11 21:48N 38°39' W 027°13'0 0.1
2018-Jun-11 21:30N 38°39' W 027°13'0 0.0
2018-Jun-11 20:54N 38°39' W 027°13'0 0.0
2018-Jun-11 20:15N 38°39' W 027°13'0 0.0
2018-Jun-11 19:57N 38°39' W 027°13'0 0.0
2018-Jun-11 19:29N 38°39' W 027°13'0 0.0
2018-Jun-11 18:48N 38°39' W 027°13'0 0.0
2018-Jun-11 17:56N 38°39' W 027°13'0 0.0
2018-Jun-11 17:29N 38°39' W 027°13'0 0.0
2018-Jun-11 17:00N 38°39' W 027°13'0 0.0
2018-Jun-11 16:24N 38°39' W 027°13'0 0.0
2018-Jun-11 16:00N 38°39' W 027°13'1 1.8
2018-Jun-11 15:30N 38°38' W 027°13'4 7.1
2018-Jun-11 15:00N 38°37' W 027°17'2 4.2
2018-Jun-11 14:30N 38°37' W 027°20'2 4.4
2018-Jun-11 14:00N 38°36' W 027°23'2 4.9
2018-Jun-11 13:30N 38°36' W 027°26'3 5.5
2018-Jun-11 13:00N 38°35' W 027°29'3 5.5
2018-Jun-11 12:30N 38°34' W 027°33'3 5.8
2018-Jun-11 12:00N 38°34' W 027°36'3 5.9
2018-Jun-11 11:30N 38°33' W 027°40'3 5.4
2018-Jun-11 11:00N 38°32' W 027°43'4 8.1
2018-Jun-11 10:30N 38°31' W 027°48'4 7.6
2018-Jun-11 10:00N 38°30' W 027°53'4 7.1
2018-Jun-11 09:30N 38°31' W 027°57'3 6.9
2018-Jun-11 09:00N 38°32' W 028°01'4 7.1
2018-Jun-11 08:30N 38°32' W 028°06'4 7.3
2018-Jun-11 08:00N 38°33' W 028°10'3 6.9
2018-Jun-11 07:30N 38°34' W 028°15'4 7.0
2018-Jun-11 07:00N 38°34' W 028°19'3 6.9
2018-Jun-11 06:30N 38°35' W 028°23'3 6.7
2018-Jun-11 06:00N 38°35' W 028°28'4 7.0
2018-Jun-11 05:30N 38°33' W 028°32'3 6.8
2018-Jun-11 05:00N 38°32' W 028°36'  
Track history (hours):
 
Tides and Currents Weather Stations Pressure Air Temp Water Temp Dewpoint Dewpoint Depression Visibility Wind Speed Wind Dir Waves Ship Positions

S/y Roselina

Last reported at 2018-Jun-19 01:01 UTC. Time now 2018-Jun-23 14:18 UTC.
Position N 40°07' W 026°59'.

Length 19 m; draft 2.2 m.

Type: Sailing vessel. MMSI: 219251000.

Date/timePositionNaut miles runAvg speedWind from/ knotsBaromVisibWave heightAir tempDewpointWater temp
2018-Jun-19 01:01N 40°07' W 026°59'10 6.7
2018-Jun-18 23:33N 39°57' W 026°60'28 7.0
2018-Jun-18 19:35N 39°30' W 027°01'1 6.7
2018-Jun-18 19:30N 39°29' W 027°01'5 6.9
2018-Jun-18 18:45N 39°24' W 027°01'2 7.5
2018-Jun-18 18:30N 39°22' W 027°02'4 7.6
2018-Jun-18 18:01N 39°19' W 027°02'4 7.8
2018-Jun-18 17:30N 39°15' W 027°02'4 7.7
2018-Jun-18 17:00N 39°11' W 027°02'4 7.0
2018-Jun-18 16:30N 39°07' W 027°02'4 7.4
2018-Jun-18 16:00N 39°04' W 027°03'3 6.7
2018-Jun-18 15:30N 39°00' W 027°03'2 2.7
2018-Jun-18 14:51N 38°59' W 027°03'1 4.2
2018-Jun-18 14:30N 38°57' W 027°04'3 5.2
2018-Jun-18 14:00N 38°55' W 027°04'3 5.7
2018-Jun-18 13:30N 38°52' W 027°03'3 6.4
2018-Jun-18 13:00N 38°49' W 027°02'3 6.0
2018-Jun-18 12:30N 38°46' W 027°01'3 6.4
2018-Jun-18 12:00N 38°43' W 027°01'3 6.6
2018-Jun-18 11:30N 38°40' W 027°03'3 6.2
2018-Jun-18 11:01N 38°38' W 027°06'4 7.0
2018-Jun-18 10:27N 38°39' W 027°11'1 2.8
2018-Jun-18 09:56N 38°39' W 027°13'0 0.0
2018-Jun-18 09:24N 38°39' W 027°13'0 0.1
2018-Jun-18 08:51N 38°39' W 027°13'0 0.0
2018-Jun-18 08:30N 38°39' W 027°13'0 0.0
2018-Jun-18 08:00N 38°39' W 027°13'0 0.0
2018-Jun-18 07:27N 38°39' W 027°13'0 0.0
2018-Jun-18 04:18N 38°39' W 027°13'0 0.0
2018-Jun-18 01:18N 38°39' W 027°13'0 0.0
2018-Jun-18 00:54N 38°39' W 027°13'0 0.0
2018-Jun-18 00:30N 38°39' W 027°13'0 0.1
2018-Jun-18 00:00N 38°39' W 027°13'0 0.0
2018-Jun-17 23:30N 38°39' W 027°13'0 0.0
2018-Jun-17 23:00N 38°39' W 027°13'0 0.0
2018-Jun-17 22:15N 38°39' W 027°13'0 0.1
2018-Jun-17 21:57N 38°39' W 027°13'0 0.0
2018-Jun-17 21:00N 38°39' W 027°13'0 0.0
2018-Jun-17 20:30N 38°39' W 027°13'0 0.0
2018-Jun-17 18:18N 38°39' W 027°13'0 0.0
2018-Jun-17 16:57N 38°39' W 027°13'0 0.0
2018-Jun-17 16:30N 38°39' W 027°13'0 0.0
2018-Jun-17 14:48N 38°39' W 027°13'0 0.0
2018-Jun-17 13:09N 38°39' W 027°13'0 0.1
2018-Jun-17 12:51N 38°39' W 027°13'0 0.0
2018-Jun-17 12:30N 38°39' W 027°13'0 0.0
2018-Jun-17 11:57N 38°39' W 027°13'0 0.0
2018-Jun-17 10:57N 38°39' W 027°13'0 0.0
2018-Jun-17 10:30N 38°39' W 027°13'0 0.0
2018-Jun-17 09:57N 38°39' W 027°13'0 0.1
2018-Jun-17 09:30N 38°39' W 027°13'  
2018-Jun-13 17:48N 38°39' W 027°13'0 0.0
2018-Jun-13 17:30N 38°39' W 027°13'0 0.0
2018-Jun-13 16:57N 38°39' W 027°13'0 0.0
2018-Jun-13 16:30N 38°39' W 027°13'0 0.0
2018-Jun-13 16:00N 38°39' W 027°13'0 0.0
2018-Jun-13 15:30N 38°39' W 027°13'0 0.0
2018-Jun-13 13:06N 38°39' W 027°13'0 0.1
2018-Jun-13 12:42N 38°39' W 027°13'0 0.0
2018-Jun-13 12:27N 38°39' W 027°13'0 0.0
2018-Jun-13 10:42N 38°39' W 027°13'0 0.0
2018-Jun-13 06:48N 38°39' W 027°13'0 0.0
2018-Jun-13 06:30N 38°39' W 027°13'0 0.0
2018-Jun-13 05:48N 38°39' W 027°13'0 0.1
2018-Jun-13 05:30N 38°39' W 027°13'0 0.0
2018-Jun-13 04:15N 38°39' W 027°13'0 0.0
2018-Jun-13 04:00N 38°39' W 027°13'0 0.0
2018-Jun-13 03:27N 38°39' W 027°13'0 0.0
2018-Jun-13 01:42N 38°39' W 027°13'0 0.1
2018-Jun-13 01:27N 38°39' W 027°13'0 0.1
2018-Jun-13 01:00N 38°39' W 027°13'0 0.0
2018-Jun-13 00:30N 38°39' W 027°13'0 0.0
2018-Jun-12 23:12N 38°39' W 027°13'0 0.0
2018-Jun-12 20:36N 38°39' W 027°13'0 0.0
2018-Jun-12 17:09N 38°39' W 027°13'0 0.0
2018-Jun-12 16:39N 38°39' W 027°13'0 0.0
2018-Jun-12 16:18N 38°39' W 027°13'0 0.1
2018-Jun-12 16:00N 38°39' W 027°13'0 0.0
2018-Jun-12 14:54N 38°39' W 027°13'0 0.0
2018-Jun-12 13:36N 38°39' W 027°13'0 0.0
2018-Jun-12 11:48N 38°39' W 027°13'0 0.0
2018-Jun-12 11:18N 38°39' W 027°13'0 0.1
2018-Jun-12 10:59N 38°39' W 027°13'0 0.1
2018-Jun-12 10:27N 38°39' W 027°13'0 0.0
2018-Jun-12 10:00N 38°39' W 027°13'0 0.0
2018-Jun-12 08:17N 38°39' W 027°13'0 0.1
2018-Jun-12 07:54N 38°39' W 027°13'0 0.1
2018-Jun-12 07:21N 38°39' W 027°13'0 0.0
2018-Jun-12 04:18N 38°39' W 027°13'0 0.0
2018-Jun-12 03:47N 38°39' W 027°13'0 0.1
2018-Jun-12 03:27N 38°39' W 027°13'0 0.0
2018-Jun-12 02:02N 38°39' W 027°13'0 0.1
2018-Jun-12 01:44N 38°39' W 027°13'0 0.1
2018-Jun-12 01:26N 38°39' W 027°13'0 0.0
2018-Jun-12 01:00N 38°39' W 027°13'0 0.0
2018-Jun-12 00:24N 38°39' W 027°13'0 0.0
2018-Jun-11 23:51N 38°39' W 027°13'0 0.0
2018-Jun-11 23:05N 38°39' W 027°13'0 0.0
2018-Jun-11 22:39N 38°39' W 027°13'0 0.0
2018-Jun-11 21:48N 38°39' W 027°13'0 0.1
2018-Jun-11 21:30N 38°39' W 027°13'0 0.0
2018-Jun-11 20:54N 38°39' W 027°13'0 0.0
2018-Jun-11 20:15N 38°39' W 027°13'0 0.0
2018-Jun-11 19:57N 38°39' W 027°13'0 0.0
2018-Jun-11 19:29N 38°39' W 027°13'0 0.0
2018-Jun-11 18:48N 38°39' W 027°13'0 0.0
2018-Jun-11 17:56N 38°39' W 027°13'0 0.0
2018-Jun-11 17:29N 38°39' W 027°13'0 0.0
2018-Jun-11 17:00N 38°39' W 027°13'0 0.0
2018-Jun-11 16:24N 38°39' W 027°13'0 0.0
2018-Jun-11 16:00N 38°39' W 027°13'1 1.8
2018-Jun-11 15:30N 38°38' W 027°13'4 7.1
2018-Jun-11 15:00N 38°37' W 027°17'2 4.2
2018-Jun-11 14:30N 38°37' W 027°20'2 4.4
2018-Jun-11 14:00N 38°36' W 027°23'2 4.9
2018-Jun-11 13:30N 38°36' W 027°26'3 5.5
2018-Jun-11 13:00N 38°35' W 027°29'3 5.5
2018-Jun-11 12:30N 38°34' W 027°33'3 5.8
2018-Jun-11 12:00N 38°34' W 027°36'3 5.9
2018-Jun-11 11:30N 38°33' W 027°40'3 5.4
2018-Jun-11 11:00N 38°32' W 027°43'4 8.1
2018-Jun-11 10:30N 38°31' W 027°48'4 7.6
2018-Jun-11 10:00N 38°30' W 027°53'4 7.1
2018-Jun-11 09:30N 38°31' W 027°57'3 6.9
2018-Jun-11 09:00N 38°32' W 028°01'4 7.1
2018-Jun-11 08:30N 38°32' W 028°06'4 7.3
2018-Jun-11 08:00N 38°33' W 028°10'3 6.9
2018-Jun-11 07:30N 38°34' W 028°15'4 7.0
2018-Jun-11 07:00N 38°34' W 028°19'3 6.9
2018-Jun-11 06:30N 38°35' W 028°23'3 6.7
2018-Jun-11 06:00N 38°35' W 028°28'4 7.0
2018-Jun-11 05:30N 38°33' W 028°32'3 6.8
2018-Jun-11 05:00N 38°32' W 028°36'  

Dump ship's entire track history